createdAt,value
2023-09-23T00:01:43.694Z,100.00
2023-09-23T00:04:12.006Z,100.00
2023-09-23T00:06:42.117Z,100.00
2023-09-23T00:09:12.348Z,100.00
2023-09-23T00:11:42.257Z,100.00
2023-09-23T00:14:11.680Z,100.00
2023-09-23T00:16:39.788Z,100.00
2023-09-23T00:19:10.284Z,100.00
2023-09-23T00:21:39.577Z,100.00
2023-09-23T00:24:10.036Z,100.00
2023-09-23T00:26:38.076Z,100.00
2023-09-23T00:29:06.593Z,100.00
2023-09-23T00:31:35.027Z,100.00
2023-09-23T00:34:04.010Z,100.00
2023-09-23T00:36:33.140Z,100.00
2023-09-23T00:39:04.216Z,100.00
2023-09-23T00:41:34.084Z,100.00
2023-09-23T00:44:06.172Z,100.00
2023-09-23T00:46:36.781Z,100.00
2023-09-23T00:49:09.266Z,100.00
2023-09-23T00:51:39.419Z,100.00
2023-09-23T00:54:15.433Z,100.00
2023-09-23T00:56:45.409Z,100.00
2023-09-23T00:59:18.650Z,100.00
2023-09-23T01:01:53.779Z,100.00
2023-09-23T01:04:22.752Z,100.00
2023-09-23T01:06:50.936Z,100.00
2023-09-23T01:09:21.827Z,100.00
2023-09-23T01:11:52.626Z,100.00
2023-09-23T01:14:22.589Z,100.00
2023-09-23T01:16:51.039Z,100.00
2023-09-23T01:19:19.980Z,100.00
2023-09-23T01:21:50.739Z,100.00
2023-09-23T01:24:26.242Z,100.00
2023-09-23T01:26:54.119Z,100.00
2023-09-23T01:29:24.621Z,100.00
2023-09-23T01:32:08.651Z,100.00
2023-09-23T01:34:37.173Z,100.00
2023-09-23T01:37:06.275Z,100.00
2023-09-23T01:39:36.514Z,100.00
2023-09-23T01:42:05.784Z,100.00
2023-09-23T01:44:34.000Z,100.00
2023-09-23T01:47:02.375Z,100.00
2023-09-23T01:49:33.290Z,100.00
2023-09-23T01:52:03.058Z,100.00
2023-09-23T01:54:31.310Z,100.00
2023-09-23T01:57:00.987Z,100.00
2023-09-23T01:59:29.127Z,100.00
2023-09-23T02:01:57.300Z,100.00
2023-09-23T02:04:27.024Z,100.00
2023-09-23T02:06:56.365Z,100.00
2023-09-23T02:09:24.987Z,100.00
2023-09-23T02:11:55.260Z,100.00
2023-09-23T02:14:24.919Z,100.00
2023-09-23T02:16:53.541Z,100.00
2023-09-23T02:19:22.439Z,100.00
2023-09-23T02:21:52.161Z,100.00
2023-09-23T02:24:20.832Z,100.00
2023-09-23T02:26:49.213Z,100.00
2023-09-23T02:29:18.226Z,100.00
2023-09-23T02:31:50.421Z,100.00
2023-09-23T02:34:20.218Z,100.00
2023-09-23T02:36:48.616Z,100.00
2023-09-23T02:39:18.372Z,100.00
2023-09-23T02:41:47.545Z,100.00
2023-09-23T02:44:20.686Z,100.00
2023-09-23T02:46:54.703Z,100.00
2023-09-23T02:49:24.625Z,100.00
2023-09-23T02:51:53.045Z,100.00
2023-09-23T02:54:21.469Z,100.00
2023-09-23T02:56:51.825Z,100.00
2023-09-23T02:59:27.690Z,100.00
2023-09-23T03:01:59.328Z,100.00
2023-09-23T03:04:32.545Z,100.00
2023-09-23T03:07:02.955Z,100.00
2023-09-23T03:09:33.867Z,100.00
2023-09-23T03:12:04.286Z,100.00
2023-09-23T03:14:37.861Z,100.00
2023-09-23T03:17:08.848Z,100.00
2023-09-23T03:19:39.859Z,100.00
2023-09-23T03:22:09.231Z,100.00
2023-09-23T03:24:37.651Z,100.00
2023-09-23T03:27:07.338Z,100.00
2023-09-23T03:29:35.468Z,100.00
2023-09-23T03:32:03.986Z,100.00
2023-09-23T03:34:33.655Z,100.00
2023-09-23T03:37:10.628Z,100.00
2023-09-23T03:39:42.292Z,100.00
2023-09-23T03:42:10.389Z,100.00
2023-09-23T03:44:39.100Z,100.00
2023-09-23T03:47:07.302Z,100.00
2023-09-23T03:49:36.787Z,100.00
2023-09-23T03:52:07.118Z,100.00
2023-09-23T03:54:35.665Z,100.00
2023-09-23T03:57:06.368Z,100.00
2023-09-23T03:59:36.454Z,100.00
2023-09-23T04:02:06.797Z,100.00
2023-09-23T04:04:39.309Z,100.00
2023-09-23T04:07:09.278Z,100.00
2023-09-23T04:09:37.378Z,100.00
2023-09-23T04:12:07.868Z,100.00
2023-09-23T04:14:36.027Z,100.00
2023-09-23T04:17:04.343Z,100.00
2023-09-23T04:19:32.906Z,100.00
2023-09-23T04:22:02.350Z,100.00
2023-09-23T04:24:30.941Z,100.00
2023-09-23T04:27:00.767Z,100.00
2023-09-23T04:29:31.334Z,100.00
2023-09-23T04:32:00.435Z,100.00
2023-09-23T04:34:28.854Z,100.00
2023-09-23T04:36:58.165Z,100.00
2023-09-23T04:39:27.959Z,100.00
2023-09-23T04:41:56.287Z,100.00
2023-09-23T04:44:25.894Z,100.00
2023-09-23T04:46:55.024Z,100.00
2023-09-23T04:49:23.753Z,100.00
2023-09-23T04:51:52.268Z,100.00
2023-09-23T04:54:20.491Z,100.00
2023-09-23T04:56:50.400Z,100.00
2023-09-23T04:59:18.454Z,100.00
2023-09-23T05:01:47.694Z,100.00
2023-09-23T05:04:16.812Z,100.00
2023-09-23T05:06:45.256Z,100.00
2023-09-23T05:09:13.628Z,100.00
2023-09-23T05:11:41.684Z,100.00
2023-09-23T05:14:11.508Z,100.00
2023-09-23T05:16:39.907Z,100.00
2023-09-23T05:19:09.483Z,100.00
2023-09-23T05:21:38.014Z,100.00
2023-09-23T05:24:07.785Z,100.00
2023-09-23T05:26:36.509Z,100.00
2023-09-23T05:29:06.381Z,100.00
2023-09-23T05:31:37.968Z,100.00
2023-09-23T05:34:08.007Z,100.00
2023-09-23T05:36:36.283Z,100.00
2023-09-23T05:39:09.765Z,100.00
2023-09-23T05:41:37.669Z,100.00
2023-09-23T05:44:06.208Z,100.00
2023-09-23T05:46:39.327Z,100.00
2023-09-23T05:49:10.368Z,100.00
2023-09-23T05:51:38.357Z,100.00
2023-09-23T05:54:06.683Z,100.00
2023-09-23T05:56:34.902Z,100.00
2023-09-23T05:59:03.149Z,100.00
2023-09-23T06:01:31.299Z,100.00
2023-09-23T06:04:00.929Z,100.00
2023-09-23T06:06:29.296Z,100.00
2023-09-23T06:08:58.486Z,100.00
2023-09-23T06:11:26.825Z,100.00
2023-09-23T06:13:55.258Z,100.00
2023-09-23T06:16:23.962Z,100.00
2023-09-23T06:18:52.247Z,100.00
2023-09-23T06:21:21.921Z,100.00
2023-09-23T06:23:50.168Z,100.00
2023-09-23T06:26:18.509Z,100.00
2023-09-23T06:28:46.906Z,100.00
2023-09-23T06:31:15.318Z,100.00
2023-09-23T06:33:43.648Z,100.00
2023-09-23T06:36:11.952Z,100.00
2023-09-23T06:38:42.058Z,100.00
2023-09-23T06:41:11.309Z,100.00
2023-09-23T06:43:41.400Z,100.00
2023-09-23T06:46:09.873Z,100.00
2023-09-23T06:48:38.357Z,100.00
2023-09-23T06:51:06.411Z,100.00
2023-09-23T06:53:34.449Z,100.00
2023-09-23T06:56:04.608Z,100.00
2023-09-23T06:58:32.701Z,100.00
2023-09-23T07:01:01.072Z,100.00
2023-09-23T07:03:30.810Z,100.00
2023-09-23T07:05:58.859Z,100.00
2023-09-23T07:08:27.002Z,100.00
2023-09-23T07:10:56.489Z,100.00
2023-09-23T07:13:26.052Z,100.00
2023-09-23T07:15:54.405Z,100.00
2023-09-23T07:18:22.484Z,100.00
2023-09-23T07:20:50.592Z,100.00
2023-09-23T07:23:18.822Z,100.00
2023-09-23T07:25:46.984Z,100.00
2023-09-23T07:28:18.123Z,100.00
2023-09-23T07:30:47.670Z,100.00
2023-09-23T07:33:15.885Z,100.00
2023-09-23T07:35:44.397Z,100.00
2023-09-23T07:38:12.894Z,100.00
2023-09-23T07:40:41.906Z,97.92
2023-09-23T07:43:10.463Z,100.00
2023-09-23T07:45:39.912Z,100.00
2023-09-23T07:48:10.561Z,98.35
2023-09-23T07:50:39.183Z,97.84
2023-09-23T07:53:07.267Z,98.76
2023-09-23T07:55:35.521Z,98.06
2023-09-23T07:58:04.055Z,94.92
2023-09-23T08:00:32.077Z,94.47
2023-09-23T08:03:00.390Z,90.41
2023-09-23T08:05:31.023Z,86.26
2023-09-23T08:07:59.258Z,84.27
2023-09-23T08:10:27.534Z,82.18
2023-09-23T08:12:56.185Z,79.56
2023-09-23T08:15:24.349Z,81.07
2023-09-23T08:17:52.592Z,76.14
2023-09-23T08:20:21.642Z,77.39
2023-09-23T08:22:51.927Z,76.71
2023-09-23T08:25:20.666Z,75.01
2023-09-23T08:27:49.191Z,71.96
2023-09-23T08:30:18.303Z,71.91
2023-09-23T08:32:47.243Z,72.13
2023-09-23T08:35:15.981Z,72.67
2023-09-23T08:37:47.360Z,71.03
2023-09-23T08:40:20.875Z,69.44
2023-09-23T08:42:53.935Z,66.62
2023-09-23T08:45:27.662Z,65.81
2023-09-23T08:47:56.672Z,61.90
2023-09-23T08:50:26.392Z,61.77
2023-09-23T08:52:54.823Z,64.03
2023-09-23T08:55:26.148Z,64.58
2023-09-23T08:57:54.228Z,66.58
2023-09-23T09:00:22.506Z,66.02
2023-09-23T09:02:52.525Z,62.30
2023-09-23T09:05:22.168Z,64.49
2023-09-23T09:07:50.668Z,63.15
2023-09-23T09:10:19.378Z,63.04
2023-09-23T09:12:50.528Z,56.77
2023-09-23T09:15:19.580Z,55.15
2023-09-23T09:17:47.674Z,53.97
2023-09-23T09:20:16.141Z,57.09
2023-09-23T09:22:45.556Z,60.90
2023-09-23T09:25:15.304Z,64.52
2023-09-23T09:27:45.506Z,65.84
2023-09-23T09:30:15.407Z,67.03
2023-09-23T09:32:44.438Z,66.98
2023-09-23T09:35:17.708Z,67.21
2023-09-23T09:37:47.760Z,66.99
2023-09-23T09:40:18.968Z,63.11
2023-09-23T09:42:55.478Z,62.14
2023-09-23T09:45:25.693Z,59.31
2023-09-23T09:47:54.721Z,59.17
2023-09-23T09:50:26.888Z,57.25
2023-09-23T09:52:55.563Z,57.24
2023-09-23T09:55:26.375Z,55.41
2023-09-23T09:57:55.959Z,53.66
2023-09-23T10:00:35.302Z,53.05
2023-09-23T10:03:07.802Z,52.84
2023-09-23T10:05:37.257Z,50.86
2023-09-23T10:08:14.683Z,50.20
2023-09-23T10:10:48.623Z,46.45
2023-09-23T10:13:18.713Z,46.12
2023-09-23T10:15:48.897Z,46.48
2023-09-23T10:18:19.851Z,46.44
2023-09-23T10:20:51.902Z,45.16
2023-09-23T10:23:22.234Z,43.82
2023-09-23T10:25:53.117Z,44.25
2023-09-23T10:28:24.482Z,43.82
2023-09-23T10:31:01.477Z,44.73
2023-09-23T10:33:32.136Z,43.96
2023-09-23T10:36:00.704Z,42.62
2023-09-23T10:38:32.108Z,42.21
2023-09-23T10:41:00.723Z,44.57
2023-09-23T10:43:31.570Z,43.05
2023-09-23T10:46:03.203Z,42.42
2023-09-23T10:48:32.745Z,42.34
2023-09-23T10:51:01.838Z,42.00
2023-09-23T10:53:31.853Z,41.93
2023-09-23T10:56:03.354Z,41.18
2023-09-23T10:58:32.828Z,40.19
2023-09-23T11:01:02.869Z,40.83
2023-09-23T11:03:31.606Z,40.51
2023-09-23T11:06:00.300Z,39.77
2023-09-23T11:08:28.669Z,39.28
2023-09-23T11:10:59.061Z,39.03
2023-09-23T11:13:28.462Z,37.76
2023-09-23T11:15:56.506Z,39.21
2023-09-23T11:18:29.580Z,38.50
2023-09-23T11:20:57.802Z,39.18
2023-09-23T11:23:31.104Z,38.98
2023-09-23T11:25:59.430Z,39.03
2023-09-23T11:28:28.794Z,38.56
2023-09-23T11:30:58.922Z,38.11
2023-09-23T11:33:28.617Z,38.61
2023-09-23T11:35:58.201Z,38.02
2023-09-23T11:38:26.472Z,37.23
2023-09-23T11:40:56.055Z,37.22
2023-09-23T11:43:26.486Z,36.11
2023-09-23T11:45:54.841Z,36.21
2023-09-23T11:48:23.113Z,35.17
2023-09-23T11:50:53.202Z,33.93
2023-09-23T11:53:21.707Z,34.64
2023-09-23T11:55:50.481Z,33.83
2023-09-23T11:58:19.154Z,33.24
2023-09-23T12:00:48.999Z,32.21
2023-09-23T12:03:17.144Z,32.28
2023-09-23T12:05:46.365Z,32.80
2023-09-23T12:08:18.459Z,32.57
2023-09-23T12:10:46.858Z,31.28
2023-09-23T12:13:15.065Z,31.53
2023-09-23T12:15:43.550Z,31.16
2023-09-23T12:18:12.656Z,30.82
2023-09-23T12:20:40.836Z,30.64
2023-09-23T12:23:09.252Z,30.03
2023-09-23T12:25:39.140Z,29.55
2023-09-23T12:28:08.190Z,28.79
2023-09-23T12:30:36.242Z,29.90
2023-09-23T12:33:04.629Z,29.44
2023-09-23T12:35:34.002Z,28.82
2023-09-23T12:38:04.219Z,28.77
2023-09-23T12:40:33.302Z,28.75
2023-09-23T12:43:03.890Z,28.73
2023-09-23T12:45:32.016Z,28.89
2023-09-23T12:48:00.515Z,28.90
2023-09-23T12:50:28.658Z,28.42
2023-09-23T12:52:56.758Z,28.57
2023-09-23T12:55:25.704Z,28.45
2023-09-23T12:57:55.105Z,28.48
2023-09-23T13:00:24.919Z,28.63
2023-09-23T13:02:53.528Z,28.63
2023-09-23T13:05:21.897Z,28.60
2023-09-23T13:07:50.214Z,28.72
2023-09-23T13:10:18.639Z,28.48
2023-09-23T13:12:46.972Z,28.50
2023-09-23T13:15:15.375Z,28.61
2023-09-23T13:17:45.960Z,28.55
2023-09-23T13:20:16.015Z,28.51
2023-09-23T13:22:44.118Z,27.84
2023-09-23T13:25:13.323Z,28.81
2023-09-23T13:27:41.251Z,27.94
2023-09-23T13:30:11.108Z,27.85
2023-09-23T13:32:42.621Z,28.07
2023-09-23T13:35:13.166Z,28.36
2023-09-23T13:37:41.797Z,27.43
2023-09-23T13:40:12.248Z,27.89
2023-09-23T13:42:40.551Z,27.57
2023-09-23T13:45:09.878Z,26.77
2023-09-23T13:47:39.633Z,27.05
2023-09-23T13:50:10.337Z,26.96
2023-09-23T13:52:40.113Z,27.14
2023-09-23T13:55:09.613Z,27.16
2023-09-23T13:57:38.053Z,26.67
2023-09-23T14:00:08.438Z,27.48
2023-09-23T14:02:35.997Z,27.50
2023-09-23T14:05:05.897Z,27.61
2023-09-23T14:07:33.997Z,27.90
2023-09-23T14:10:18.942Z,27.75
2023-09-23T14:12:49.387Z,27.72
2023-09-23T14:15:17.925Z,27.67
2023-09-23T14:17:47.634Z,28.02
2023-09-23T14:20:16.145Z,27.38
2023-09-23T14:22:46.940Z,27.67
2023-09-23T14:25:18.832Z,28.03
2023-09-23T14:27:47.046Z,27.67
2023-09-23T14:30:15.536Z,26.96
2023-09-23T14:32:44.037Z,27.03
2023-09-23T14:35:12.171Z,27.13
2023-09-23T14:37:40.929Z,27.08
2023-09-23T14:40:10.482Z,27.68
2023-09-23T14:42:40.064Z,27.75
2023-09-23T14:45:10.252Z,28.40
2023-09-23T14:47:39.041Z,29.24
2023-09-23T14:50:08.178Z,28.77
2023-09-23T14:52:36.547Z,28.30
2023-09-23T14:55:06.524Z,28.75
2023-09-23T14:57:35.820Z,30.91
2023-09-23T15:00:06.498Z,31.94
2023-09-23T15:02:34.696Z,31.58
2023-09-23T15:05:02.924Z,28.83
2023-09-23T15:07:31.396Z,29.47
2023-09-23T15:09:59.800Z,29.28
2023-09-23T15:12:27.953Z,29.33
2023-09-23T15:14:56.697Z,29.46
2023-09-23T15:17:26.562Z,30.13
2023-09-23T15:19:54.522Z,30.17
2023-09-23T15:22:23.858Z,30.01
2023-09-23T15:24:53.107Z,31.60
2023-09-23T15:27:21.240Z,31.60
2023-09-23T15:29:49.763Z,32.29
2023-09-23T15:32:17.910Z,32.52
2023-09-23T15:34:47.517Z,32.50
2023-09-23T15:37:15.856Z,29.16
2023-09-23T15:39:46.040Z,28.08
2023-09-23T15:42:15.422Z,26.58
2023-09-23T15:44:44.080Z,26.96
2023-09-23T15:47:12.375Z,27.65
2023-09-23T15:49:42.789Z,28.76
2023-09-23T15:52:16.124Z,28.36
2023-09-23T15:54:44.504Z,28.83
2023-09-23T15:57:13.327Z,30.68
2023-09-23T15:59:42.290Z,26.95
2023-09-23T16:02:10.726Z,26.93
2023-09-23T16:04:41.166Z,26.50
2023-09-23T16:07:12.622Z,26.67
2023-09-23T16:09:42.193Z,26.87
2023-09-23T16:12:10.576Z,30.02
2023-09-23T16:14:40.334Z,30.75
2023-09-23T16:17:08.707Z,31.29
2023-09-23T16:19:37.708Z,31.57
2023-09-23T16:22:05.841Z,31.53
2023-09-23T16:24:33.849Z,31.74
2023-09-23T16:27:03.184Z,32.23
2023-09-23T16:29:31.351Z,32.63
2023-09-23T16:31:59.627Z,32.93
2023-09-23T16:34:27.606Z,33.33
2023-09-23T16:36:57.048Z,32.80
2023-09-23T16:39:25.141Z,33.10
2023-09-23T16:41:53.625Z,33.48
2023-09-23T16:44:24.631Z,33.60
2023-09-23T16:46:55.371Z,33.79
2023-09-23T16:49:24.102Z,33.46
2023-09-23T16:51:52.348Z,33.66
2023-09-23T16:54:20.416Z,33.89
2023-09-23T16:56:49.094Z,33.66
2023-09-23T16:59:17.419Z,34.10
2023-09-23T17:01:48.165Z,33.87
2023-09-23T17:04:16.329Z,34.07
2023-09-23T17:06:44.341Z,34.45
2023-09-23T17:09:14.844Z,34.74
2023-09-23T17:11:43.095Z,34.94
2023-09-23T17:14:11.144Z,35.32
2023-09-23T17:16:39.193Z,35.69
2023-09-23T17:19:08.522Z,37.48
2023-09-23T17:21:36.542Z,39.44
2023-09-23T17:24:05.113Z,40.29
2023-09-23T17:26:33.169Z,41.01
2023-09-23T17:29:02.842Z,41.23
2023-09-23T17:31:31.028Z,41.71
2023-09-23T17:33:59.313Z,41.81
2023-09-23T17:36:30.096Z,42.65
2023-09-23T17:38:58.780Z,42.67
2023-09-23T17:41:27.164Z,43.32
2023-09-23T17:43:56.681Z,43.76
2023-09-23T17:46:25.304Z,43.81
2023-09-23T17:48:54.263Z,42.87
2023-09-23T17:51:22.513Z,41.34
2023-09-23T17:53:52.040Z,41.37
2023-09-23T17:56:22.502Z,42.87
2023-09-23T17:58:50.867Z,42.98
2023-09-23T18:01:19.130Z,43.83
2023-09-23T18:03:47.493Z,44.72
2023-09-23T18:06:17.822Z,45.04
2023-09-23T18:08:46.316Z,44.83
2023-09-23T18:11:15.900Z,45.04
2023-09-23T18:13:43.970Z,45.63
2023-09-23T18:16:12.015Z,46.62
2023-09-23T18:18:44.658Z,46.66
2023-09-23T18:21:15.172Z,47.33
2023-09-23T18:23:45.525Z,47.53
2023-09-23T18:26:16.201Z,47.81
2023-09-23T18:28:45.453Z,48.18
2023-09-23T18:31:13.446Z,50.35
2023-09-23T18:33:42.452Z,50.22
2023-09-23T18:36:12.105Z,49.88
2023-09-23T18:38:40.321Z,50.63
2023-09-23T18:41:08.548Z,50.83
2023-09-23T18:43:38.082Z,54.07
2023-09-23T18:46:06.280Z,54.16
2023-09-23T18:48:34.478Z,55.96
2023-09-23T18:51:02.729Z,58.22
2023-09-23T18:53:32.687Z,56.50
2023-09-23T18:56:02.890Z,55.35
2023-09-23T18:58:30.880Z,55.81
2023-09-23T19:01:04.067Z,57.17
2023-09-23T19:03:32.555Z,56.27
2023-09-23T19:06:00.993Z,57.41
2023-09-23T19:08:29.122Z,57.72
2023-09-23T19:10:57.561Z,59.16
2023-09-23T19:13:25.769Z,59.30
2023-09-23T19:15:55.073Z,59.93
2023-09-23T19:18:24.478Z,59.32
2023-09-23T19:20:52.727Z,59.89
2023-09-23T19:23:20.951Z,60.64
2023-09-23T19:25:53.238Z,61.85
2023-09-23T19:28:22.850Z,61.20
2023-09-23T19:30:51.198Z,62.12
2023-09-23T19:33:19.510Z,62.40
2023-09-23T19:35:49.899Z,63.38
2023-09-23T19:38:18.406Z,63.48
2023-09-23T19:40:47.253Z,62.45
2023-09-23T19:43:17.601Z,63.16
2023-09-23T19:45:45.605Z,62.92
2023-09-23T19:48:13.804Z,61.57
2023-09-23T19:50:43.914Z,61.19
2023-09-23T19:53:13.959Z,60.50
2023-09-23T19:55:42.164Z,60.34
2023-09-23T19:58:12.677Z,60.09
2023-09-23T20:00:40.790Z,60.77
2023-09-23T20:03:09.877Z,60.94
2023-09-23T20:05:38.456Z,61.02
2023-09-23T20:08:06.987Z,59.97
2023-09-23T20:10:38.150Z,59.88
2023-09-23T20:13:06.753Z,61.29
2023-09-23T20:15:35.273Z,61.30
2023-09-23T20:18:05.910Z,61.75
2023-09-23T20:20:35.533Z,61.88
2023-09-23T20:23:04.369Z,61.25
2023-09-23T20:25:33.019Z,59.98
2023-09-23T20:28:02.621Z,60.38
2023-09-23T20:30:30.892Z,59.79
2023-09-23T20:32:59.477Z,59.94
2023-09-23T20:35:27.941Z,60.26
2023-09-23T20:37:56.218Z,60.79
2023-09-23T20:40:25.040Z,61.56
2023-09-23T20:42:53.787Z,61.42
2023-09-23T20:45:23.636Z,61.03
2023-09-23T20:47:51.918Z,61.35
2023-09-23T20:50:20.100Z,61.79
2023-09-23T20:52:48.674Z,61.73
2023-09-23T20:55:17.477Z,62.83
2023-09-23T20:57:46.603Z,63.74
2023-09-23T21:00:16.091Z,64.40
2023-09-23T21:02:46.363Z,62.67
2023-09-23T21:05:15.392Z,62.92
2023-09-23T21:07:43.752Z,63.19
2023-09-23T21:10:13.160Z,63.08
2023-09-23T21:12:41.864Z,63.62
2023-09-23T21:15:15.824Z,64.42
2023-09-23T21:17:46.287Z,63.83
2023-09-23T21:20:15.932Z,64.11
2023-09-23T21:22:46.483Z,62.44
2023-09-23T21:25:14.617Z,61.47
2023-09-23T21:27:42.773Z,62.38
2023-09-23T21:30:13.114Z,63.36
2023-09-23T21:32:41.570Z,64.70
2023-09-23T21:35:14.787Z,65.87
2023-09-23T21:37:44.246Z,67.78
2023-09-23T21:40:12.971Z,68.60
2023-09-23T21:42:40.956Z,69.41
2023-09-23T21:45:12.600Z,68.75
2023-09-23T21:47:40.837Z,67.67
2023-09-23T21:50:11.361Z,67.42
2023-09-23T21:52:40.089Z,66.87
2023-09-23T21:55:09.340Z,67.46
2023-09-23T21:57:38.128Z,67.41
2023-09-23T22:00:23.817Z,67.24
2023-09-23T22:02:51.937Z,68.01
2023-09-23T22:05:22.548Z,69.86
2023-09-23T22:07:50.519Z,70.33
2023-09-23T22:10:18.921Z,71.63
2023-09-23T22:12:47.593Z,72.33
2023-09-23T22:15:15.875Z,72.86
2023-09-23T22:17:44.627Z,73.57
2023-09-23T22:20:16.541Z,73.70
2023-09-23T22:22:47.401Z,75.46
2023-09-23T22:25:16.538Z,77.59
2023-09-23T22:27:45.059Z,78.34
2023-09-23T22:30:14.296Z,78.80
2023-09-23T22:32:43.194Z,79.92
2023-09-23T22:35:14.503Z,80.20
2023-09-23T22:37:43.155Z,81.95
2023-09-23T22:40:15.471Z,83.02
2023-09-23T22:42:44.001Z,82.61
2023-09-23T22:45:17.687Z,82.19
2023-09-23T22:47:52.051Z,84.49
2023-09-23T22:50:22.734Z,84.38
2023-09-23T22:52:51.445Z,86.46
2023-09-23T22:55:21.213Z,86.73
2023-09-23T22:57:49.998Z,86.03
2023-09-23T23:00:22.973Z,85.84
2023-09-23T23:02:51.408Z,88.24
2023-09-23T23:05:19.903Z,88.47
2023-09-23T23:07:51.456Z,90.41
2023-09-23T23:10:21.971Z,91.96
2023-09-23T23:12:50.166Z,92.69
2023-09-23T23:15:22.234Z,92.32
2023-09-23T23:17:52.087Z,92.97
2023-09-23T23:20:24.873Z,93.69
2023-09-23T23:22:53.833Z,94.88
2023-09-23T23:25:24.652Z,94.89
2023-09-23T23:27:52.961Z,95.38
2023-09-23T23:30:22.411Z,96.90
2023-09-23T23:32:53.449Z,96.63
2023-09-23T23:35:23.916Z,96.94
2023-09-23T23:37:52.827Z,96.63
2023-09-23T23:40:23.563Z,96.59
2023-09-23T23:42:53.191Z,94.58
2023-09-23T23:45:22.311Z,91.79
2023-09-23T23:47:55.040Z,89.90
2023-09-23T23:50:24.157Z,91.61
2023-09-23T23:52:52.962Z,90.39
2023-09-23T23:55:21.562Z,89.64
2023-09-23T23:57:50.119Z,87.88
